Time;durP1;ratioP1;P1;durP2;ratioP2;P2;SDS_P1;SDS_P2;PMS_P1;PMS_P2;Temp;Humidity;BMP_temperature;BMP_pressure;BME280_temperature;BME280_humidity;BME280_pressure;Samples;Min_cycle;Max_cycle;Signal;HPM_P1;HPM_P2
2023/12/17 00:01:41;;;;;;;9.70;8.63;;;2.80;99.90;;;;;;5051168;28;20205;-54
2023/12/17 00:04:07;;;;;;;10.67;9.30;;;2.70;99.90;;;;;;5051048;28;20202;-54
2023/12/17 00:06:37;;;;;;;11.03;9.27;;;2.70;99.90;;;;;;5051006;28;20274;-54
2023/12/17 00:09:04;;;;;;;10.47;8.93;;;2.70;99.90;;;;;;5050703;28;20221;-55
2023/12/17 00:11:30;;;;;;;10.80;9.47;;;2.70;99.90;;;;;;5051355;28;20267;-55
2023/12/17 00:13:58;;;;;;;10.57;9.00;;;2.80;99.90;;;;;;5051050;28;20231;-53
2023/12/17 00:16:25;;;;;;;10.60;9.37;;;2.80;99.90;;;;;;5050988;28;20206;-53
2023/12/17 00:18:52;;;;;;;14.00;10.03;;;2.80;99.90;;;;;;5050509;28;20320;-52
2023/12/17 00:21:19;;;;;;;11.53;9.40;;;2.80;99.90;;;;;;5050839;28;20207;-53
2023/12/17 00:23:46;;;;;;;10.80;8.80;;;2.80;99.90;;;;;;5050874;28;20213;-53
2023/12/17 00:26:12;;;;;;;10.70;8.67;;;2.80;99.90;;;;;;5051026;28;20206;-53
2023/12/17 00:28:39;;;;;;;11.73;9.17;;;2.80;99.90;;;;;;5050703;28;20697;-53
2023/12/17 00:31:07;;;;;;;11.90;9.00;;;2.80;99.90;;;;;;5050552;28;20205;-53
2023/12/17 00:33:34;;;;;;;9.93;8.80;;;2.80;99.90;;;;;;5050511;28;20205;-53
2023/12/17 00:36:00;;;;;;;10.40;8.63;;;2.80;99.90;;;;;;5050504;28;20202;-54
2023/12/17 00:38:27;;;;;;;11.37;9.17;;;2.90;99.90;;;;;;5050794;28;20216;-54
2023/12/17 00:40:54;;;;;;;14.67;10.70;;;2.90;99.90;;;;;;5050237;28;20283;-53
2023/12/17 00:43:20;;;;;;;15.33;10.90;;;2.90;99.90;;;;;;5050562;28;20202;-53
2023/12/17 00:45:47;;;;;;;14.93;10.60;;;2.90;99.90;;;;;;5050484;28;20205;-53
2023/12/17 00:48:15;;;;;;;13.47;10.30;;;2.90;99.90;;;;;;5050460;28;20204;-55
2023/12/17 00:50:41;;;;;;;10.97;8.87;;;2.90;99.90;;;;;;5050176;28;20252;-54
2023/12/17 00:53:08;;;;;;;11.73;8.83;;;2.90;99.90;;;;;;5050701;28;20202;-54
2023/12/17 00:55:35;;;;;;;10.73;9.07;;;3.00;99.90;;;;;;5054594;28;20209;-54
2023/12/17 00:58:01;;;;;;;10.37;8.87;;;3.00;99.90;;;;;;5054823;28;20289;-54
2023/12/17 01:00:28;;;;;;;10.77;8.77;;;3.00;99.90;;;;;;5054353;28;20613;-54
2023/12/17 01:02:55;;;;;;;10.83;9.00;;;3.00;99.90;;;;;;5054122;28;20232;-54
2023/12/17 01:05:23;;;;;;;11.27;9.30;;;3.00;99.90;;;;;;5054731;28;20288;-54
2023/12/17 01:07:50;;;;;;;10.33;8.60;;;3.00;99.90;;;;;;5054345;28;20636;-53
2023/12/17 01:10:16;;;;;;;9.97;8.57;;;3.00;99.90;;;;;;5054094;28;20225;-53
2023/12/17 01:12:43;;;;;;;9.93;8.70;;;3.00;99.90;;;;;;5054051;28;20205;-53
2023/12/17 01:15:12;;;;;;;10.20;8.37;;;2.90;99.90;;;;;;5054103;28;20255;-53
2023/12/17 01:17:38;;;;;;;9.50;8.23;;;3.00;99.90;;;;;;5053964;28;20201;-53
2023/12/17 01:20:08;;;;;;;9.90;8.20;;;3.00;99.90;;;;;;5053707;28;20229;-52
2023/12/17 01:22:36;;;;;;;10.13;8.53;;;3.00;99.90;;;;;;5053964;28;20279;-53
2023/12/17 01:25:02;;;;;;;10.23;7.63;;;3.00;99.90;;;;;;5054130;28;20202;-53
2023/12/17 01:27:29;;;;;;;11.10;8.87;;;3.00;99.90;;;;;;5054124;28;20216;-53
2023/12/17 01:29:56;;;;;;;9.70;8.30;;;3.00;99.90;;;;;;5053440;28;20630;-52
2023/12/17 01:32:22;;;;;;;9.87;8.43;;;3.00;99.90;;;;;;5053778;28;20205;-53
2023/12/17 01:34:49;;;;;;;9.97;8.40;;;3.00;99.90;;;;;;5053930;28;20251;-53
2023/12/17 01:37:16;;;;;;;8.87;7.33;;;2.90;99.90;;;;;;5053731;28;20202;-52
2023/12/17 01:39:43;;;;;;;9.77;8.10;;;2.90;99.90;;;;;;5053230;28;20279;-52
2023/12/17 01:42:10;;;;;;;10.33;7.97;;;2.90;99.90;;;;;;5053766;28;20206;-53
2023/12/17 01:44:37;;;;;;;10.33;8.23;;;2.80;99.90;;;;;;5053528;28;20209;-53
2023/12/17 01:47:04;;;;;;;11.00;8.67;;;2.70;99.90;;;;;;5053546;28;20551;-53
2023/12/17 01:49:31;;;;;;;8.83;7.63;;;2.70;99.90;;;;;;5053705;28;20218;-52
2023/12/17 01:51:58;;;;;;;9.73;7.67;;;2.60;99.90;;;;;;5053244;28;20570;-53
2023/12/17 01:54:25;;;;;;;10.17;8.30;;;2.50;99.90;;;;;;5053485;28;20617;-55
2023/12/17 01:56:54;;;;;;;9.80;7.70;;;2.40;99.90;;;;;;5053296;28;20336;-53
2023/12/17 01:59:21;;;;;;;10.20;8.20;;;2.40;99.90;;;;;;5052969;28;20299;-53
2023/12/17 02:01:49;;;;;;;10.87;8.57;;;2.50;99.90;;;;;;5053318;28;20312;-53
2023/12/17 02:04:15;;;;;;;9.70;8.20;;;2.50;99.90;;;;;;5053292;28;20593;-53
2023/12/17 02:06:42;;;;;;;9.00;8.10;;;2.60;99.90;;;;;;5052107;28;20205;-54
2023/12/17 02:09:09;;;;;;;8.87;7.97;;;2.60;99.90;;;;;;5052770;28;20229;-54
2023/12/17 02:11:35;;;;;;;10.23;8.47;;;2.60;99.90;;;;;;5053095;28;20209;-54
2023/12/17 02:14:03;;;;;;;10.50;7.87;;;2.60;99.90;;;;;;5052920;28;20205;-53
2023/12/17 02:16:30;;;;;;;9.17;8.10;;;2.60;99.90;;;;;;5053055;28;20217;-54
2023/12/17 02:18:58;;;;;;;9.90;7.47;;;2.50;99.90;;;;;;5052867;28;20210;-53
2023/12/17 02:21:24;;;;;;;9.87;8.13;;;2.50;99.90;;;;;;5053039;28;20776;-53
2023/12/17 02:23:53;;;;;;;10.70;8.30;;;2.50;99.90;;;;;;5053017;28;20235;-53
2023/12/17 02:26:20;;;;;;;11.27;8.70;;;2.60;99.90;;;;;;5053200;28;20202;-54
2023/12/17 02:28:47;;;;;;;10.97;8.47;;;2.70;99.90;;;;;;5052649;28;20219;-53
2023/12/17 02:31:14;;;;;;;11.07;8.40;;;2.70;99.90;;;;;;5052982;28;20263;-54
2023/12/17 02:33:40;;;;;;;10.40;8.73;;;2.80;99.90;;;;;;5052847;28;20205;-54
2023/12/17 02:36:07;;;;;;;9.53;8.17;;;2.70;99.90;;;;;;5052916;28;20209;-54
2023/12/17 02:38:34;;;;;;;10.00;8.57;;;2.80;99.90;;;;;;5052632;28;20206;-54
2023/12/17 02:41:02;;;;;;;9.90;7.47;;;2.80;99.90;;;;;;5052079;28;20251;-54
2023/12/17 02:43:29;;;;;;;10.03;8.40;;;2.80;99.90;;;;;;5052720;28;20267;-54
2023/12/17 02:45:55;;;;;;;9.73;8.00;;;2.70;99.90;;;;;;5052604;28;20262;-54
2023/12/17 02:48:22;;;;;;;10.20;8.00;;;2.70;99.90;;;;;;5052648;28;20210;-54
2023/12/17 02:50:49;;;;;;;10.17;8.30;;;2.70;99.90;;;;;;5052145;28;20229;-54
2023/12/17 02:53:15;;;;;;;9.57;8.23;;;2.80;99.90;;;;;;5052583;28;20212;-54
2023/12/17 02:55:42;;;;;;;9.50;7.60;;;2.90;99.90;;;;;;5052422;28;20213;-54
2023/12/17 02:58:11;;;;;;;10.43;8.47;;;2.90;99.90;;;;;;5052303;28;20740;-54
2023/12/17 03:00:37;;;;;;;9.30;7.33;;;2.90;99.90;;;;;;5051908;28;20221;-53
2023/12/17 03:03:04;;;;;;;9.67;8.10;;;3.00;99.90;;;;;;5052210;28;20201;-54
2023/12/17 03:05:30;;;;;;;10.27;8.20;;;2.80;99.90;;;;;;5052197;28;20213;-53
2023/12/17 03:07:57;;;;;;;8.27;7.37;;;2.70;99.90;;;;;;5051836;28;20283;-54
2023/12/17 03:10:24;;;;;;;9.00;7.87;;;2.80;99.90;;;;;;5051685;28;20275;-54
2023/12/17 03:12:50;;;;;;;8.70;7.60;;;2.80;99.90;;;;;;5052134;28;20206;-54
2023/12/17 03:15:18;;;;;;;9.17;7.47;;;2.90;99.90;;;;;;5052130;28;20206;-54
2023/12/17 03:17:45;;;;;;;9.27;7.40;;;2.90;99.90;;;;;;5051577;28;20212;-54
2023/12/17 03:20:12;;;;;;;10.73;8.07;;;2.90;99.90;;;;;;5051434;28;20645;-54
2023/12/17 03:22:38;;;;;;;10.37;7.87;;;2.90;99.90;;;;;;5051530;28;20205;-54
2023/12/17 03:25:05;;;;;;;11.57;8.40;;;3.00;99.90;;;;;;5051904;28;20205;-54
2023/12/17 03:27:32;;;;;;;9.83;7.40;;;3.00;99.90;;;;;;5051906;28;20607;-54
2023/12/17 03:29:59;;;;;;;8.70;7.10;;;3.10;99.90;;;;;;5051387;28;20223;-53
2023/12/17 03:32:27;;;;;;;11.10;7.60;;;3.00;99.90;;;;;;5051548;28;20263;-54
2023/12/17 03:34:54;;;;;;;8.07;6.90;;;3.00;99.90;;;;;;5051556;28;20202;-53
2023/12/17 03:37:20;;;;;;;8.27;7.03;;;3.00;99.90;;;;;;5051430;28;20632;-53
2023/12/17 03:39:48;;;;;;;8.20;7.27;;;3.10;99.90;;;;;;5051791;28;20225;-53
2023/12/17 03:42:15;;;;;;;10.17;7.00;;;3.10;99.90;;;;;;5051852;28;20733;-54
2023/12/17 03:44:42;;;;;;;10.30;7.53;;;3.10;99.90;;;;;;5051419;28;20206;-54
2023/12/17 03:47:08;;;;;;;8.40;7.07;;;3.20;99.90;;;;;;5051325;28;20675;-54
2023/12/17 03:49:36;;;;;;;9.17;6.63;;;3.20;99.90;;;;;;5051088;28;20271;-54
2023/12/17 03:52:05;;;;;;;8.17;6.70;;;3.20;99.90;;;;;;5051124;28;20259;-54
2023/12/17 03:54:32;;;;;;;7.63;6.67;;;3.20;99.90;;;;;;5051482;28;20210;-54
2023/12/17 03:56:59;;;;;;;8.87;6.93;;;3.20;99.90;;;;;;5051021;28;20592;-55
2023/12/17 03:59:26;;;;;;;9.40;6.93;;;3.10;99.90;;;;;;5051038;28;20324;-53
2023/12/17 04:01:53;;;;;;;7.93;6.90;;;3.10;99.90;;;;;;5050944;28;20221;-53
2023/12/17 04:04:20;;;;;;;7.60;6.37;;;3.10;99.90;;;;;;5050899;28;20828;-53
2023/12/17 04:06:48;;;;;;;7.53;6.67;;;3.10;99.90;;;;;;5051110;28;20201;-53
2023/12/17 04:09:15;;;;;;;7.40;6.47;;;3.10;99.90;;;;;;5064852;22;20710;-62
2023/12/17 04:11:41;;;;;;;7.57;6.60;;;3.10;99.90;;;;;;5039619;28;20709;-62
2023/12/17 04:14:09;;;;;;;7.83;6.70;;;3.10;99.90;;;;;;5042907;28;20198;-62
2023/12/17 04:16:35;;;;;;;7.83;7.03;;;3.00;99.90;;;;;;5042832;28;20206;-62
2023/12/17 04:19:03;;;;;;;9.40;6.97;;;3.00;99.90;;;;;;5040089;28;20202;-62
2023/12/17 04:21:30;;;;;;;6.60;5.90;;;3.00;99.90;;;;;;5050909;28;20710;-62
2023/12/17 04:23:58;;;;;;;7.50;6.70;;;3.00;99.90;;;;;;5051074;28;20228;-62
2023/12/17 04:26:24;;;;;;;9.10;7.00;;;3.00;99.90;;;;;;5051110;28;20211;-62
2023/12/17 04:28:51;;;;;;;8.17;6.70;;;3.00;99.90;;;;;;5049886;28;20206;-62
2023/12/17 04:31:18;;;;;;;9.60;6.70;;;3.00;99.90;;;;;;5050687;28;20715;-62
2023/12/17 04:33:45;;;;;;;7.67;6.80;;;3.00;99.90;;;;;;5050545;28;20217;-62
2023/12/17 04:36:11;;;;;;;8.23;7.37;;;3.00;99.90;;;;;;5051033;28;20296;-61
2023/12/17 04:38:38;;;;;;;9.90;6.83;;;3.00;99.90;;;;;;5050822;28;20746;-62
2023/12/17 04:41:07;;;;;;;8.03;6.90;;;3.00;99.90;;;;;;5050689;28;20307;-62
2023/12/17 04:43:33;;;;;;;9.43;7.23;;;2.90;99.90;;;;;;5050689;28;20737;-62
2023/12/17 04:46:00;;;;;;;10.40;6.63;;;2.90;99.90;;;;;;5050623;28;20209;-62
2023/12/17 04:48:26;;;;;;;9.13;6.53;;;2.90;99.90;;;;;;5050884;28;20205;-62
2023/12/17 04:50:53;;;;;;;9.33;7.23;;;2.80;99.90;;;;;;5050562;28;20322;-61
2023/12/17 04:53:20;;;;;;;9.13;7.40;;;2.80;99.90;;;;;;5050805;28;20202;-62
2023/12/17 04:55:47;;;;;;;8.07;6.90;;;2.80;99.90;;;;;;5050530;28;20202;-62
2023/12/17 04:58:15;;;;;;;8.87;6.87;;;2.80;99.90;;;;;;5050724;28;20305;-61
2023/12/17 05:00:41;;;;;;;8.77;6.40;;;2.80;99.90;;;;;;5050146;28;20237;-61
2023/12/17 05:03:08;;;;;;;7.77;6.90;;;2.80;99.90;;;;;;5050504;28;20286;-62
2023/12/17 05:05:35;;;;;;;9.77;7.10;;;2.70;99.90;;;;;;5050815;28;20255;-62
2023/12/17 05:08:01;;;;;;;7.50;6.70;;;2.60;99.90;;;;;;5050431;28;20296;-62
2023/12/17 05:10:28;;;;;;;8.37;6.90;;;2.60;99.90;;;;;;5050248;28;20230;-62
2023/12/17 05:12:54;;;;;;;8.53;6.33;;;2.70;99.90;;;;;;5050401;28;20263;-62
2023/12/17 05:15:23;;;;;;;7.13;6.43;;;2.70;99.90;;;;;;5050651;28;20206;-62
2023/12/17 05:17:50;;;;;;;8.43;6.67;;;2.80;99.90;;;;;;5050327;28;20208;-60
2023/12/17 05:20:16;;;;;;;8.67;7.00;;;2.80;99.90;;;;;;5050291;28;20616;-62
2023/12/17 05:22:43;;;;;;;7.57;6.60;;;2.80;99.90;;;;;;5050314;28;20208;-62
2023/12/17 05:25:10;;;;;;;8.60;6.23;;;2.90;99.90;;;;;;5050459;28;20288;-60
2023/12/17 05:27:38;;;;;;;10.13;6.57;;;2.90;99.90;;;;;;5050411;28;20263;-62
2023/12/17 05:30:06;;;;;;;9.07;6.77;;;2.90;99.90;;;;;;5050245;28;20226;-62
2023/12/17 05:32:34;;;;;;;9.77;6.83;;;3.00;99.90;;;;;;5050444;28;20209;-62
2023/12/17 05:35:01;;;;;;;9.03;7.00;;;2.90;99.90;;;;;;5050113;28;20610;-62
2023/12/17 05:37:27;;;;;;;9.53;6.93;;;2.90;99.90;;;;;;5050348;28;20206;-62
2023/12/17 05:39:55;;;;;;;7.80;7.00;;;2.90;99.90;;;;;;5051253;28;20229;-61
2023/12/17 05:42:21;;;;;;;8.40;7.10;;;2.80;99.90;;;;;;5054145;28;20632;-62
2023/12/17 05:44:48;;;;;;;9.23;7.10;;;2.70;99.90;;;;;;5054004;28;20209;-62
2023/12/17 05:47:15;;;;;;;9.03;7.07;;;2.80;99.90;;;;;;5053697;28;20675;-62
2023/12/17 05:49:43;;;;;;;9.87;6.93;;;2.70;99.90;;;;;;5053761;28;20229;-62
2023/12/17 05:52:09;;;;;;;7.53;6.73;;;2.70;99.90;;;;;;5037984;28;20228;-62
2023/12/17 05:54:38;;;;;;;7.73;6.57;;;2.70;99.90;;;;;;5053593;28;20348;-62
2023/12/17 05:57:06;;;;;;;7.97;7.13;;;2.70;99.90;;;;;;5053836;28;20294;-62
2023/12/17 05:59:32;;;;;;;10.67;7.23;;;2.60;99.90;;;;;;5053497;28;20240;-60
2023/12/17 06:01:59;;;;;;;8.90;7.40;;;2.50;99.90;;;;;;5053214;28;20217;-62
2023/12/17 06:04:26;;;;;;;8.33;7.33;;;2.50;99.90;;;;;;5053819;28;20681;-62
2023/12/17 06:06:55;;;;;;;8.73;6.90;;;2.40;99.90;;;;;;5053382;28;20209;-62
2023/12/17 06:09:22;;;;;;;9.03;6.77;;;2.30;99.90;;;;;;5052831;28;20221;-62
2023/12/17 06:11:49;;;;;;;8.03;7.03;;;2.30;99.90;;;;;;5053420;28;20579;-61
2023/12/17 06:14:17;;;;;;;8.03;7.17;;;2.40;99.90;;;;;;5053327;28;20202;-62
2023/12/17 06:16:44;;;;;;;8.57;6.97;;;2.30;99.90;;;;;;5053093;28;20292;-62
2023/12/17 06:19:11;;;;;;;8.47;7.17;;;2.30;99.90;;;;;;5053026;28;20205;-62
2023/12/17 06:21:37;;;;;;;8.77;7.13;;;2.20;99.90;;;;;;5053013;28;20244;-62
2023/12/17 06:24:07;;;;;;;10.17;7.10;;;2.20;99.90;;;;;;5052874;28;20675;-62
2023/12/17 06:26:35;;;;;;;8.00;6.50;;;2.30;99.90;;;;;;5053246;28;20212;-62
2023/12/17 06:29:01;;;;;;;9.87;7.50;;;2.40;99.90;;;;;;5052635;28;20736;-62
2023/12/17 06:31:28;;;;;;;10.40;7.63;;;2.50;99.90;;;;;;5052825;28;20206;-62
2023/12/17 06:33:55;;;;;;;8.10;7.00;;;2.50;99.90;;;;;;5052734;28;20702;-60
2023/12/17 06:36:22;;;;;;;9.43;7.20;;;2.50;99.90;;;;;;5052783;28;20258;-62
2023/12/17 06:38:49;;;;;;;9.30;6.87;;;2.50;99.90;;;;;;5052915;28;20201;-62
2023/12/17 06:41:17;;;;;;;9.17;6.93;;;2.50;99.90;;;;;;5052713;28;20217;-61
2023/12/17 06:43:44;;;;;;;9.17;7.17;;;2.50;99.90;;;;;;5052470;28;20271;-61
2023/12/17 06:46:16;;;;;;;9.40;7.50;;;2.50;99.90;;;;;;5052796;28;20239;-62
2023/12/17 06:48:43;;;;;;;10.37;7.57;;;2.40;99.90;;;;;;5052697;28;20212;-62
2023/12/17 06:51:10;;;;;;;8.50;7.23;;;2.30;99.90;;;;;;5035309;28;20229;-62
2023/12/17 06:53:37;;;;;;;10.43;7.67;;;2.20;99.90;;;;;;5052608;28;20205;-62
2023/12/17 06:56:05;;;;;;;9.87;7.80;;;2.10;99.90;;;;;;5052602;28;20271;-62
2023/12/17 06:58:33;;;;;;;9.17;7.60;;;2.10;99.90;;;;;;5052539;28;20737;-62
2023/12/17 07:01:00;;;;;;;8.17;7.30;;;2.10;99.90;;;;;;5052070;28;20221;-62
2023/12/17 07:03:27;;;;;;;10.93;8.53;;;2.20;99.90;;;;;;5052222;28;20663;-62
2023/12/17 07:05:53;;;;;;;9.60;7.80;;;2.20;99.90;;;;;;5052218;28;20702;-62
2023/12/17 07:08:20;;;;;;;11.00;8.17;;;2.10;99.90;;;;;;5052064;28;20667;-62
2023/12/17 07:10:46;;;;;;;13.03;8.10;;;2.10;99.90;;;;;;5051862;28;20233;-62
2023/12/17 07:13:13;;;;;;;10.33;7.60;;;2.10;99.90;;;;;;5052104;28;20198;-63
2023/12/17 07:15:43;;;;;;;9.23;6.93;;;2.20;99.90;;;;;;5052131;28;20264;-61
2023/12/17 07:18:10;;;;;;;8.67;7.30;;;2.20;99.90;;;;;;5035736;28;20212;-62
2023/12/17 07:20:36;;;;;;;9.53;7.67;;;2.30;99.90;;;;;;5051746;28;20284;-62
2023/12/17 07:23:03;;;;;;;10.23;7.67;;;2.40;99.90;;;;;;5051833;28;20222;-62
2023/12/17 07:25:30;;;;;;;9.10;7.33;;;2.40;99.90;;;;;;5052042;28;20205;-62
2023/12/17 07:27:56;;;;;;;8.20;7.00;;;2.50;99.90;;;;;;5051920;28;20207;-62
2023/12/17 07:30:23;;;;;;;9.53;7.70;;;2.50;99.90;;;;;;5051419;28;20217;-62
2023/12/17 07:32:51;;;;;;;10.27;7.97;;;2.50;99.90;;;;;;5051579;28;20235;-62
2023/12/17 07:35:18;;;;;;;9.37;7.40;;;2.50;99.90;;;;;;5051986;28;20208;-62
2023/12/17 07:37:44;;;;;;;10.00;7.50;;;2.40;99.90;;;;;;5051732;28;20202;-62
2023/12/17 07:40:12;;;;;;;8.10;6.60;;;2.50;99.90;;;;;;5051594;28;20602;-62
2023/12/17 07:42:38;;;;;;;8.30;6.60;;;2.40;99.90;;;;;;5051560;28;20225;-62
2023/12/17 07:45:06;;;;;;;8.27;6.50;;;2.40;99.90;;;;;;5051484;28;20210;-62
2023/12/17 07:47:33;;;;;;;10.77;7.20;;;2.30;99.90;;;;;;5051798;28;20679;-62
2023/12/17 07:50:01;;;;;;;10.50;7.60;;;2.30;99.90;;;;;;5051494;28;20316;-62
2023/12/17 07:52:28;;;;;;;10.10;6.93;;;2.30;99.90;;;;;;5051614;28;20202;-62
2023/12/17 07:54:56;;;;;;;9.73;7.70;;;2.30;99.90;;;;;;5051638;28;20641;-61
2023/12/17 07:57:22;;;;;;;11.60;7.57;;;2.40;99.90;;;;;;5051518;28;20576;-62
2023/12/17 07:59:50;;;;;;;8.73;7.00;;;2.40;99.90;;;;;;5050800;28;20237;-62
2023/12/17 08:02:17;;;;;;;8.67;6.97;;;2.40;99.90;;;;;;5051318;28;20240;-62
2023/12/17 08:04:44;;;;;;;9.73;7.60;;;2.40;99.90;;;;;;5051558;28;20237;-62
2023/12/17 08:07:13;;;;;;;9.77;7.57;;;2.40;99.90;;;;;;5034801;28;20697;-61
2023/12/17 08:09:40;;;;;;;14.30;10.63;;;2.50;99.90;;;;;;5050789;28;20753;-62
2023/12/17 08:12:07;;;;;;;8.40;7.27;;;2.50;99.90;;;;;;5050996;28;20307;-62
2023/12/17 08:14:34;;;;;;;10.13;7.50;;;2.50;99.90;;;;;;5050998;28;20206;-62
2023/12/17 08:17:01;;;;;;;8.57;7.60;;;2.50;99.90;;;;;;5051282;28;20206;-61
2023/12/17 08:19:28;;;;;;;9.70;7.83;;;2.50;99.90;;;;;;5051047;28;20225;-60
2023/12/17 08:21:55;;;;;;;9.53;7.67;;;2.50;99.90;;;;;;5050799;28;20307;-61
2023/12/17 08:24:23;;;;;;;11.17;8.40;;;2.70;99.90;;;;;;5051127;28;20217;-60
2023/12/17 08:26:50;;;;;;;11.37;8.93;;;2.70;99.90;;;;;;5050713;28;20406;-60
2023/12/17 08:29:17;;;;;;;9.87;8.60;;;2.70;99.90;;;;;;5050743;28;20293;-61
2023/12/17 08:31:45;;;;;;;9.37;7.87;;;2.80;99.90;;;;;;5051097;28;20251;-60
2023/12/17 08:34:12;;;;;;;9.47;7.57;;;2.90;99.90;;;;;;5050857;28;20314;-61
2023/12/17 08:36:41;;;;;;;13.23;8.73;;;2.90;99.90;;;;;;5050801;28;20240;-61
2023/12/17 08:39:07;;;;;;;11.20;8.77;;;3.10;99.90;;;;;;5050591;28;20263;-61
2023/12/17 08:41:36;;;;;;;14.27;8.90;;;4.00;99.90;;;;;;5050681;28;20225;-61
2023/12/17 08:44:02;;;;;;;14.67;9.33;;;3.50;99.90;;;;;;5050888;28;20209;-62
2023/12/17 08:46:29;;;;;;;12.53;9.30;;;3.50;99.90;;;;;;5051172;28;20263;-62
2023/12/17 08:48:56;;;;;;;9.50;7.97;;;3.60;99.90;;;;;;5050568;28;20568;-61
2023/12/17 08:51:22;;;;;;;12.30;8.43;;;3.70;99.90;;;;;;5050646;28;20251;-62
2023/12/17 08:53:49;;;;;;;16.50;12.57;;;3.80;99.90;;;;;;5050538;28;20248;-62
2023/12/17 08:56:16;;;;;;;11.33;9.13;;;3.90;99.90;;;;;;5050628;28;20202;-61
2023/12/17 08:58:44;;;;;;;11.07;8.43;;;3.90;99.90;;;;;;5051001;28;20205;-62
2023/12/17 09:01:12;;;;;;;10.87;8.27;;;3.90;99.90;;;;;;5050806;28;20218;-62
2023/12/17 09:03:39;;;;;;;12.03;7.80;;;4.40;99.90;;;;;;5050683;28;20209;-62
2023/12/17 09:06:06;;;;;;;10.07;8.23;;;3.90;99.90;;;;;;5051007;28;20664;-63
2023/12/17 09:08:33;;;;;;;10.07;7.87;;;3.90;99.90;;;;;;5052120;28;20201;-63
2023/12/17 09:10:58;;;;;;;9.90;7.90;;;4.00;99.90;;;;;;5053685;28;20613;-63
2023/12/17 09:13:25;;;;;;;9.23;7.20;;;4.10;99.90;;;;;;5056248;28;20198;-63
2023/12/17 09:15:53;;;;;;;11.17;8.10;;;4.20;99.90;;;;;;5059662;28;20296;-63
2023/12/17 09:18:20;;;;;;;11.57;7.57;;;4.20;99.90;;;;;;5057662;28;20251;-63
2023/12/17 09:20:46;;;;;;;8.87;7.30;;;4.30;99.90;;;;;;5056664;28;20266;-61
2023/12/17 09:23:13;;;;;;;9.60;7.10;;;4.40;99.90;;;;;;5055177;28;20222;-64
2023/12/17 09:25:39;;;;;;;8.47;6.50;;;4.40;99.90;;;;;;5055625;28;20618;-65
2023/12/17 09:28:06;;;;;;;8.93;6.80;;;4.50;99.90;;;;;;5056029;28;20228;-63
2023/12/17 09:30:33;;;;;;;10.47;7.47;;;4.60;99.90;;;;;;5054042;28;20232;-63
2023/12/17 09:33:01;;;;;;;10.53;8.27;;;4.70;99.90;;;;;;5053887;28;20230;-63
2023/12/17 09:35:28;;;;;;;11.70;7.70;;;4.90;99.90;;;;;;5054795;28;20205;-63
2023/12/17 09:37:54;;;;;;;11.33;8.23;;;5.10;99.90;;;;;;5055166;28;20212;-64
2023/12/17 09:40:21;;;;;;;9.33;7.67;;;5.10;99.90;;;;;;5054653;28;20229;-63
2023/12/17 09:42:52;;;;;;;11.23;7.90;;;5.10;99.90;;;;;;5055267;28;20280;-63
2023/12/17 09:45:19;;;;;;;10.00;7.60;;;5.20;99.90;;;;;;5039525;28;20248;-63
2023/12/17 09:47:45;;;;;;;9.87;8.03;;;5.30;99.90;;;;;;5054232;28;20686;-63
2023/12/17 09:50:13;;;;;;;9.47;7.50;;;5.30;99.90;;;;;;5054100;28;20229;-64
2023/12/17 09:52:42;;;;;;;7.77;6.97;;;5.50;99.90;;;;;;5055060;28;20216;-63
2023/12/17 09:55:11;;;;;;;7.20;6.27;;;5.60;99.90;;;;;;5055039;28;20205;-64
2023/12/17 09:57:37;;;;;;;9.37;6.67;;;5.80;99.90;;;;;;5054646;28;20213;-63
2023/12/17 10:00:09;;;;;;;8.23;6.23;;;5.90;99.90;;;;;;5054168;28;20229;-64
2023/12/17 10:02:36;;;;;;;7.23;6.13;;;6.00;99.90;;;;;;5054701;28;20247;-64
2023/12/17 10:05:02;;;;;;;6.67;5.97;;;6.10;99.90;;;;;;5054533;28;20213;-63
2023/12/17 10:07:31;;;;;;;8.47;6.10;;;6.20;99.90;;;;;;5054801;28;20601;-62
2023/12/17 10:09:57;;;;;;;8.13;6.60;;;6.30;99.90;;;;;;5074877;22;20238;-55
2023/12/17 10:12:24;;;;;;;6.50;5.63;;;6.30;99.90;;;;;;5044968;28;20198;-55
2023/12/17 10:14:52;;;;;;;8.30;6.40;;;6.30;99.90;;;;;;5044741;28;20205;-55
2023/12/17 10:17:19;;;;;;;7.87;5.90;;;6.30;99.90;;;;;;5041689;28;20202;-55
2023/12/17 10:19:50;;;;;;;9.30;5.97;;;6.30;99.90;;;;;;5044040;28;20228;-55
2023/12/17 10:22:16;;;;;;;7.10;5.60;;;6.40;99.90;;;;;;5037163;28;20253;-55
2023/12/17 10:24:45;;;;;;;6.13;5.43;;;6.30;99.90;;;;;;5053120;28;20213;-55
2023/12/17 10:27:16;;;;;;;8.87;6.00;;;6.20;99.90;;;;;;5051697;28;20202;-55
2023/12/17 10:29:44;;;;;;;7.33;5.70;;;6.20;99.90;;;;;;5052494;28;20236;-55
2023/12/17 10:32:12;;;;;;;6.73;5.83;;;6.30;99.90;;;;;;5052758;28;20201;-55
2023/12/17 10:34:40;;;;;;;5.40;4.90;;;6.30;99.90;;;;;;5052557;28;20707;-55
2023/12/17 10:37:07;;;;;;;6.00;5.40;;;6.40;99.90;;;;;;5053005;28;20297;-55
2023/12/17 10:39:35;;;;;;;5.77;5.10;;;6.50;99.90;;;;;;5052513;28;20206;-55
2023/12/17 10:42:05;;;;;;;7.27;5.63;;;6.60;99.90;;;;;;5052263;28;20202;-55
2023/12/17 10:44:32;;;;;;;8.67;5.77;;;6.70;99.90;;;;;;5052533;28;20206;-55
2023/12/17 10:47:03;;;;;;;6.63;5.23;;;6.70;99.90;;;;;;5052459;28;20240;-55
2023/12/17 10:49:30;;;;;;;7.80;5.80;;;6.70;99.90;;;;;;5052343;28;20285;-56
2023/12/17 10:51:59;;;;;;;5.73;4.67;;;6.80;99.90;;;;;;5052006;28;20630;-55
2023/12/17 10:54:26;;;;;;;6.73;5.90;;;6.80;99.90;;;;;;5052411;28;20271;-55
2023/12/17 10:56:56;;;;;;;5.43;4.77;;;6.80;99.90;;;;;;5052168;28;20296;-56
2023/12/17 10:59:29;;;;;;;7.43;5.53;;;6.90;99.90;;;;;;5052351;28;20251;-54
2023/12/17 11:01:58;;;;;;;5.37;4.30;;;7.00;99.90;;;;;;5052121;28;20206;-55
2023/12/17 11:04:25;;;;;;;5.47;4.23;;;7.10;99.90;;;;;;5052203;28;20275;-56
2023/12/17 11:06:52;;;;;;;5.03;4.23;;;7.20;99.90;;;;;;5052044;28;20206;-55
2023/12/17 11:09:19;;;;;;;5.07;4.13;;;7.20;99.90;;;;;;5051670;28;20312;-55
2023/12/17 11:11:47;;;;;;;7.20;4.97;;;7.30;99.90;;;;;;5051836;28;20241;-56
2023/12/17 11:14:14;;;;;;;6.30;4.93;;;7.30;99.90;;;;;;5051671;28;20289;-56
2023/12/17 11:16:42;;;;;;;6.77;4.80;;;7.40;99.90;;;;;;5051906;28;20698;-55
2023/12/17 11:19:11;;;;;;;7.93;5.20;;;7.50;99.90;;;;;;5051547;28;20209;-56
2023/12/17 11:21:38;;;;;;;5.00;4.50;;;7.50;99.90;;;;;;5051694;28;20233;-56
2023/12/17 11:24:07;;;;;;;5.77;4.73;;;7.70;99.90;;;;;;5051411;28;20666;-56
2023/12/17 11:26:40;;;;;;;5.23;4.30;;;7.90;99.90;;;;;;5052132;28;20213;-55
2023/12/17 11:29:34;;;;;;;4.93;4.20;;;8.00;99.90;;;;;;5051573;28;20297;-55
2023/12/17 11:32:02;;;;;;;7.33;5.20;;;8.10;99.90;;;;;;5051589;28;20292;-56
2023/12/17 11:34:30;;;;;;;5.33;4.30;;;8.10;99.90;;;;;;5051964;28;20224;-55
2023/12/17 11:36:57;;;;;;;4.40;4.00;;;8.20;99.90;;;;;;5051265;28;20231;-56
2023/12/17 11:39:25;;;;;;;5.47;4.50;;;8.20;99.90;;;;;;5051057;28;20197;-56
2023/12/17 11:41:52;;;;;;;6.00;4.40;;;8.30;99.90;;;;;;5051430;28;20675;-56
2023/12/17 11:44:18;;;;;;;5.93;3.77;;;8.40;99.90;;;;;;5035436;28;20707;-56
2023/12/17 11:46:47;;;;;;;4.93;3.90;;;8.40;99.90;;;;;;5051477;28;20263;-56
2023/12/17 11:49:22;;;;;;;5.83;3.97;;;8.50;99.90;;;;;;5050994;28;20759;-55
2023/12/17 11:51:48;;;;;;;4.30;3.67;;;8.60;99.90;;;;;;5051601;28;20290;-55
2023/12/17 11:54:18;;;;;;;4.37;3.93;;;8.90;99.90;;;;;;5051520;28;20198;-55
2023/12/17 11:56:45;;;;;;;4.47;3.80;;;9.10;99.90;;;;;;5051403;28;20208;-55
2023/12/17 11:59:11;;;;;;;4.70;3.43;;;9.20;99.90;;;;;;5051010;28;20240;-55
2023/12/17 12:01:38;;;;;;;3.97;3.53;;;9.40;99.90;;;;;;5051094;28;20367;-55
2023/12/17 12:04:05;;;;;;;4.87;3.73;;;9.50;99.90;;;;;;5051116;28;20222;-57
2023/12/17 12:06:33;;;;;;;4.47;3.53;;;9.70;99.90;;;;;;5051328;28;20612;-56
2023/12/17 12:09:00;;;;;;;4.10;3.60;;;9.80;99.90;;;;;;5050654;28;20296;-56
2023/12/17 12:11:32;;;;;;;4.33;3.40;;;9.80;99.90;;;;;;5051215;28;20241;-55
2023/12/17 12:13:59;;;;;;;3.97;3.57;;;9.90;99.90;;;;;;5050596;28;20293;-56
2023/12/17 12:16:26;;;;;;;7.47;4.10;;;9.90;99.90;;;;;;5051119;28;20227;-55
2023/12/17 12:19:01;;;;;;;4.80;3.60;;;10.00;99.90;;;;;;5050711;28;20588;-56
2023/12/17 12:21:29;;;;;;;3.90;3.17;;;10.10;99.90;;;;;;5037439;28;20312;-56
2023/12/17 12:23:59;;;;;;;5.87;3.30;;;10.20;99.90;;;;;;5050626;28;20634;-56
2023/12/17 12:26:26;;;;;;;3.57;3.07;;;10.20;99.90;;;;;;5051064;28;20582;-56
2023/12/17 12:28:57;;;;;;;4.03;3.03;;;10.10;99.90;;;;;;5051007;28;20218;-55
2023/12/17 12:31:24;;;;;;;3.60;3.20;;;10.20;99.90;;;;;;5035499;28;20654;-56
2023/12/17 12:33:54;;;;;;;3.70;3.00;;;10.20;99.90;;;;;;5051113;28;20280;-56
2023/12/17 12:36:21;;;;;;;4.77;3.60;;;10.20;99.90;;;;;;5035150;28;20293;-57
2023/12/17 12:39:01;;;;;;;4.13;3.33;;;10.20;99.90;;;;;;5050831;28;20263;-57
2023/12/17 12:41:28;;;;;;;4.30;3.60;;;10.20;99.90;;;;;;5036907;28;20317;-56
2023/12/17 12:43:55;;;;;;;3.77;3.23;;;10.10;99.90;;;;;;5050493;28;20226;-56
2023/12/17 12:46:23;;;;;;;3.80;3.17;;;10.20;99.90;;;;;;5050178;28;20209;-56
2023/12/17 12:48:54;;;;;;;4.50;3.57;;;10.20;99.90;;;;;;5050456;28;20289;-56
2023/12/17 12:51:21;;;;;;;4.63;3.73;;;10.10;99.90;;;;;;5038328;28;20313;-57
2023/12/17 12:53:48;;;;;;;4.10;3.67;;;10.10;99.90;;;;;;5054719;28;20284;-56